Time;durP1;ratioP1;P1;durP2;ratioP2;P2;SDS_P1;SDS_P2;PMS_P1;PMS_P2;Temp;Humidity;BMP_temperature;BMP_pressure;BME280_temperature;BME280_humidity;BME280_pressure;Samples;Min_cycle;Max_cycle;Signal;HPM_P1;HPM_P2
2022/01/27 00:03:47;;;;;;;53.58;23.90;;;5.30;58.60;;;;;;6211853;28;20030;-70
2022/01/27 00:06:39;;;;;;;51.80;22.60;;;5.20;58.60;;;;;;6214350;28;20033;-71
2022/01/27 00:10:07;;;;;;;62.25;24.77;;;5.20;58.70;;;;;;6209481;28;20507;-70
2022/01/27 00:13:12;;;;;;;66.70;24.92;;;5.20;58.80;;;;;;6212347;28;20037;-70
2022/01/27 00:16:23;;;;;;;63.58;27.10;;;5.10;58.90;;;;;;6186932;28;20042;-69
2022/01/27 00:19:24;;;;;;;67.97;26.85;;;5.10;58.90;;;;;;6209201;28;20042;-69
2022/01/27 00:22:27;;;;;;;65.57;26.67;;;5.10;59.10;;;;;;6207523;28;20108;-71
2022/01/27 00:25:28;;;;;;;61.55;25.23;;;5.10;59.10;;;;;;6296168;28;20597;-72
2022/01/27 00:28:29;;;;;;;65.07;26.08;;;5.10;59.10;;;;;;6317691;28;20026;-71
2022/01/27 00:31:30;;;;;;;62.45;24.60;;;5.10;59.30;;;;;;6299889;28;20024;-71
2022/01/27 00:34:31;;;;;;;58.40;21.60;;;5.00;59.30;;;;;;6299822;28;20046;-69
2022/01/27 00:37:32;;;;;;;56.13;22.10;;;5.00;59.40;;;;;;6311768;28;20086;-70
2022/01/27 00:40:33;;;;;;;53.35;22.60;;;4.90;59.50;;;;;;6298963;28;20016;-70
2022/01/27 00:43:34;;;;;;;57.17;23.63;;;4.90;59.60;;;;;;6300038;28;20024;-70
2022/01/27 00:46:36;;;;;;;59.53;21.63;;;4.90;59.80;;;;;;6299161;28;20024;-70
2022/01/27 00:49:38;;;;;;;56.30;21.55;;;4.90;59.80;;;;;;6300077;28;20035;-69
2022/01/27 00:52:44;;;;;;;42.72;17.02;;;4.80;59.90;;;;;;6283466;28;20032;-70
2022/01/27 00:55:45;;;;;;;44.13;19.63;;;4.80;59.90;;;;;;6300025;28;20273;-71
2022/01/27 01:01:55;;;;;;;49.40;16.48;;;4.70;60.10;;;;;;6299779;28;20028;-71
2022/01/27 01:05:50;;;;;;;53.13;18.85;;;4.60;60.30;;;;;;6316549;28;20020;-72
2022/01/27 01:15:12;;;;;;;60.75;25.35;;;4.30;61.40;;;;;;6311009;28;20397;-71
2022/01/27 01:21:34;;;;;;;68.28;25.05;;;4.30;62.00;;;;;;6320917;28;20442;-70
2022/01/27 01:31:31;;;;;;;49.83;17.67;;;4.10;62.50;;;;;;6303872;28;20082;-70
2022/01/27 01:34:32;;;;;;;48.33;16.70;;;4.10;62.90;;;;;;6321727;28;20656;-71
2022/01/27 01:37:40;;;;;;;42.70;15.80;;;4.10;63.20;;;;;;6319977;28;20152;-71
2022/01/27 01:40:41;;;;;;;45.00;16.40;;;4.10;63.30;;;;;;6299368;28;20319;-71
2022/01/27 01:43:42;;;;;;;42.85;14.90;;;4.10;63.30;;;;;;6287128;28;20285;-71
2022/01/27 01:46:43;;;;;;;44.63;15.73;;;4.10;63.40;;;;;;6303835;28;20023;-69
2022/01/27 01:49:43;;;;;;;45.28;16.98;;;4.10;63.50;;;;;;6320974;28;20020;-70
2022/01/27 01:52:45;;;;;;;53.90;14.52;;;4.10;63.60;;;;;;6303411;28;20613;-71
2022/01/27 01:55:46;;;;;;;40.58;15.02;;;4.10;63.70;;;;;;6286508;28;20363;-69
2022/01/27 01:58:47;;;;;;;49.25;16.70;;;4.10;63.80;;;;;;6321872;28;20060;-69
2022/01/27 02:01:49;;;;;;;42.85;16.08;;;4.00;63.80;;;;;;6302717;28;20048;-70
2022/01/27 02:04:50;;;;;;;45.03;17.25;;;4.00;63.80;;;;;;6303330;28;20598;-70
2022/01/27 02:18:07;;;;;;;40.72;15.45;;;3.90;64.10;;;;;;6242427;28;20045;-70
2022/01/27 02:21:08;;;;;;;34.60;12.98;;;3.90;64.20;;;;;;6242657;28;20650;-70
2022/01/27 02:24:09;;;;;;;34.15;14.75;;;3.90;64.20;;;;;;6242732;28;20050;-69
2022/01/27 02:27:10;;;;;;;41.65;14.93;;;4.00;64.30;;;;;;6225834;28;20033;-70
2022/01/27 02:30:11;;;;;;;41.13;16.27;;;3.90;64.40;;;;;;6226532;28;20107;-70
2022/01/27 02:33:12;;;;;;;44.22;15.95;;;3.90;64.70;;;;;;6241501;28;20058;-71
2022/01/27 02:36:13;;;;;;;46.03;17.63;;;3.90;64.90;;;;;;6225466;28;20025;-71
2022/01/27 02:39:14;;;;;;;64.90;14.45;;;3.90;65.10;;;;;;6242196;28;20677;-71
2022/01/27 02:42:31;;;;;;;40.03;16.98;;;3.90;65.30;;;;;;6225538;28;20200;-70
2022/01/27 02:45:58;;;;;;;36.92;15.43;;;3.90;65.30;;;;;;6225536;28;20086;-69
2022/01/27 02:48:59;;;;;;;42.78;16.00;;;3.90;65.20;;;;;;6225699;28;20033;-70
2022/01/27 02:52:00;;;;;;;38.55;14.38;;;3.90;65.20;;;;;;6267197;28;20072;-70
2022/01/27 02:55:01;;;;;;;43.58;14.63;;;4.00;65.20;;;;;;6320105;28;20024;-70
2022/01/27 02:58:03;;;;;;;45.78;16.90;;;4.00;66.00;;;;;;6302190;28;20080;-70
2022/01/27 03:01:05;;;;;;;43.55;16.98;;;4.00;65.10;;;;;;6318750;28;20061;-70
2022/01/27 03:04:05;;;;;;;41.92;15.63;;;4.10;65.00;;;;;;6301930;28;20111;-70
2022/01/27 03:07:07;;;;;;;45.85;15.77;;;4.10;64.90;;;;;;6300615;28;20024;-70
2022/01/27 03:10:08;;;;;;;56.05;16.65;;;4.10;64.80;;;;;;6295089;28;20047;-70
2022/01/27 03:13:09;;;;;;;51.45;17.23;;;4.20;64.80;;;;;;6284821;28;20093;-70
2022/01/27 03:16:10;;;;;;;44.70;16.02;;;4.20;64.80;;;;;;6318123;28;20314;-70
2022/01/27 03:19:11;;;;;;;47.58;17.00;;;4.20;64.70;;;;;;6319232;28;20020;-69
2022/01/27 03:22:12;;;;;;;46.35;16.23;;;4.20;64.60;;;;;;6318693;28;20119;-69
2022/01/27 03:25:13;;;;;;;41.85;15.45;;;4.10;64.70;;;;;;6293053;28;20048;-69
2022/01/27 03:28:15;;;;;;;38.58;14.90;;;4.10;64.80;;;;;;6293059;28;20040;-69
2022/01/27 03:31:16;;;;;;;35.13;14.73;;;4.10;64.80;;;;;;6292976;28;20025;-69
2022/01/27 03:34:17;;;;;;;44.83;16.10;;;4.10;64.70;;;;;;6276051;28;20020;-71
2022/01/27 03:37:18;;;;;;;44.75;14.65;;;4.10;64.70;;;;;;6292467;28;20353;-69
2022/01/27 03:40:18;;;;;;;37.00;14.68;;;4.10;64.70;;;;;;6291203;28;20458;-71
2022/01/27 03:43:19;;;;;;;51.97;16.05;;;4.10;64.80;;;;;;6291779;28;20425;-69
2022/01/27 03:46:20;;;;;;;48.63;16.35;;;4.10;64.80;;;;;;6276280;28;20024;-69
2022/01/27 03:49:21;;;;;;;44.80;13.45;;;4.10;64.90;;;;;;6275723;28;20032;-69
2022/01/27 03:52:22;;;;;;;42.65;13.82;;;4.10;64.90;;;;;;6292236;28;20119;-70
2022/01/27 03:55:23;;;;;;;41.83;15.32;;;4.10;64.90;;;;;;6293435;28;20039;-69
2022/01/27 03:58:24;;;;;;;40.10;15.18;;;4.10;65.00;;;;;;6293567;28;20025;-70
2022/01/27 04:01:25;;;;;;;39.65;14.18;;;4.10;65.10;;;;;;6290429;28;20063;-70
2022/01/27 04:04:26;;;;;;;40.30;15.70;;;4.10;65.20;;;;;;6292011;28;20032;-69
2022/01/27 04:07:27;;;;;;;40.67;13.23;;;4.10;65.10;;;;;;6292245;28;20330;-70
2022/01/27 04:10:28;;;;;;;38.78;15.05;;;4.20;65.20;;;;;;6292289;28;20032;-70
2022/01/27 04:13:29;;;;;;;43.78;14.85;;;4.20;65.20;;;;;;6278965;28;20338;-70
2022/01/27 04:16:30;;;;;;;49.15;16.65;;;4.20;65.10;;;;;;6290147;28;20032;-70
2022/01/27 04:19:31;;;;;;;49.67;17.45;;;4.20;64.90;;;;;;6289154;28;20451;-70
2022/01/27 04:22:31;;;;;;;40.08;14.38;;;4.20;64.80;;;;;;6285350;28;20067;-71
2022/01/27 04:25:33;;;;;;;45.40;15.25;;;4.20;64.80;;;;;;6291513;28;20500;-69
2022/01/27 04:28:37;;;;;;;46.63;14.50;;;4.20;64.90;;;;;;6292839;28;20392;-69
2022/01/27 04:31:41;;;;;;;47.28;16.92;;;4.30;64.90;;;;;;6293131;28;20124;-69
2022/01/27 04:34:42;;;;;;;47.63;17.02;;;4.30;64.90;;;;;;6292060;28;20509;-69
2022/01/27 04:37:56;;;;;;;53.42;18.08;;;4.30;64.80;;;;;;6290479;28;20032;-69
2022/01/27 04:44:12;;;;;;;42.55;16.38;;;4.30;64.80;;;;;;6291404;28;20036;-70
2022/01/27 04:47:21;;;;;;;51.78;15.95;;;4.30;64.80;;;;;;6291659;28;20051;-70
2022/01/27 04:50:21;;;;;;;45.58;15.80;;;4.30;64.80;;;;;;6275243;28;20107;-69
2022/01/27 04:53:29;;;;;;;41.45;14.68;;;4.40;64.70;;;;;;6274858;28;20036;-70
2022/01/27 04:56:33;;;;;;;37.53;14.27;;;4.40;64.50;;;;;;6296222;28;20373;-70
2022/01/27 04:59:39;;;;;;;37.78;14.07;;;4.40;64.40;;;;;;6297523;28;20055;-70
2022/01/27 05:02:56;;;;;;;51.45;15.18;;;4.30;64.30;;;;;;6297220;28;20025;-70
2022/01/27 05:05:57;;;;;;;45.28;14.55;;;4.20;64.40;;;;;;6295756;28;20078;-69
2022/01/27 05:08:58;;;;;;;51.05;15.88;;;4.30;64.60;;;;;;6276082;28;20117;-71
2022/01/27 05:12:10;;;;;;;33.78;14.10;;;4.30;64.70;;;;;;6296337;28;20036;-71
2022/01/27 05:15:12;;;;;;;45.72;15.10;;;4.30;64.60;;;;;;6313322;28;20598;-71
2022/01/27 05:18:15;;;;;;;55.83;17.90;;;4.30;65.10;;;;;;6297317;28;20036;-71
2022/01/27 05:21:16;;;;;;;37.83;14.90;;;4.30;64.40;;;;;;6295889;28;20040;-70
2022/01/27 05:24:17;;;;;;;48.70;15.77;;;4.30;64.30;;;;;;6295030;28;20631;-70
2022/01/27 05:27:18;;;;;;;51.50;16.40;;;4.30;64.20;;;;;;6296160;28;20024;-70
2022/01/27 05:30:19;;;;;;;44.03;15.60;;;4.30;64.40;;;;;;6295703;28;20127;-70
2022/01/27 05:33:20;;;;;;;33.47;12.77;;;4.30;64.40;;;;;;6295706;28;20086;-70
2022/01/27 05:36:21;;;;;;;57.00;17.13;;;4.30;64.40;;;;;;6311574;28;20072;-70
2022/01/27 05:39:22;;;;;;;51.05;14.45;;;4.30;64.40;;;;;;6289719;28;20393;-72
2022/01/27 05:42:22;;;;;;;42.05;15.85;;;4.40;64.50;;;;;;6295640;28;20056;-70
2022/01/27 05:45:23;;;;;;;50.85;18.25;;;4.40;64.40;;;;;;6295133;28;20522;-71
2022/01/27 05:48:24;;;;;;;42.88;14.15;;;4.40;64.20;;;;;;6296328;28;20497;-71
2022/01/27 05:51:25;;;;;;;44.97;15.88;;;4.40;64.00;;;;;;6295981;28;20528;-71
2022/01/27 05:54:26;;;;;;;46.30;15.43;;;4.40;64.20;;;;;;6293938;28;20028;-71
2022/01/27 05:57:27;;;;;;;40.92;15.23;;;4.40;64.30;;;;;;6289277;28;20682;-71
2022/01/27 06:00:28;;;;;;;43.47;17.35;;;4.50;64.20;;;;;;6296008;28;20414;-72
2022/01/27 06:03:29;;;;;;;41.25;13.15;;;4.50;64.20;;;;;;6293048;28;20483;-71
2022/01/27 06:06:30;;;;;;;47.90;15.77;;;4.50;64.10;;;;;;6289158;28;20024;-70
2022/01/27 06:09:31;;;;;;;48.78;15.88;;;4.50;64.10;;;;;;6294592;28;20044;-71
2022/01/27 06:12:31;;;;;;;48.83;16.38;;;4.50;64.00;;;;;;6295939;28;20391;-70
2022/01/27 06:15:32;;;;;;;43.78;16.27;;;4.50;63.90;;;;;;6294906;28;20043;-70
2022/01/27 06:18:33;;;;;;;43.55;14.55;;;4.50;64.10;;;;;;6295644;28;20142;-70
2022/01/27 06:21:35;;;;;;;41.88;13.10;;;4.40;64.30;;;;;;6294639;28;20667;-70
2022/01/27 06:24:36;;;;;;;45.45;15.10;;;4.50;64.20;;;;;;6309841;28;20040;-71
2022/01/27 06:27:37;;;;;;;38.88;14.45;;;4.50;64.10;;;;;;6319863;28;20440;-74
2022/01/27 06:30:38;;;;;;;48.72;17.17;;;4.50;64.00;;;;;;6294208;28;20021;-71
2022/01/27 06:33:39;;;;;;;43.38;15.55;;;4.50;63.90;;;;;;6286077;28;20040;-72
2022/01/27 06:36:40;;;;;;;39.63;14.07;;;4.40;63.90;;;;;;6302241;28;20659;-72
2022/01/27 06:39:41;;;;;;;38.38;14.65;;;4.40;63.80;;;;;;6301475;28;20021;-70
2022/01/27 06:42:42;;;;;;;56.25;14.55;;;4.40;63.90;;;;;;6302217;28;20567;-70
2022/01/27 06:45:43;;;;;;;36.75;13.48;;;4.40;63.90;;;;;;6302025;28;20342;-72
2022/01/27 06:48:44;;;;;;;41.90;13.43;;;4.40;63.90;;;;;;6302386;28;20024;-71
2022/01/27 06:51:45;;;;;;;38.30;12.77;;;4.40;63.80;;;;;;6319402;28;20016;-70
2022/01/27 06:54:49;;;;;;;43.03;15.05;;;4.40;63.70;;;;;;6313120;28;20028;-72
2022/01/27 06:57:50;;;;;;;47.60;13.43;;;4.40;63.70;;;;;;6319555;28;20032;-71
2022/01/27 07:00:51;;;;;;;40.53;14.32;;;4.30;63.70;;;;;;6319551;28;20124;-71
2022/01/27 07:03:52;;;;;;;51.35;15.57;;;4.30;63.90;;;;;;6301651;28;20032;-70
2022/01/27 07:06:53;;;;;;;32.72;13.80;;;4.30;64.00;;;;;;6318811;28;20008;-70
2022/01/27 07:09:53;;;;;;;41.75;15.25;;;4.30;64.20;;;;;;6296061;28;20031;-70
2022/01/27 07:12:55;;;;;;;40.75;14.38;;;4.20;64.10;;;;;;6318158;28;20028;-70
2022/01/27 07:15:56;;;;;;;43.28;14.65;;;4.20;64.20;;;;;;6300355;28;20108;-70
2022/01/27 07:18:57;;;;;;;42.25;14.68;;;4.20;64.40;;;;;;6318589;28;20025;-70
2022/01/27 07:21:59;;;;;;;32.28;12.43;;;4.30;64.50;;;;;;6301552;28;20043;-70
2022/01/27 07:25:00;;;;;;;47.22;14.23;;;4.30;64.30;;;;;;6318648;28;20117;-70
2022/01/27 07:28:01;;;;;;;41.88;13.98;;;4.30;64.10;;;;;;6301365;28;20046;-71
2022/01/27 07:31:03;;;;;;;39.80;16.02;;;4.30;63.90;;;;;;6318914;28;20028;-71
2022/01/27 07:34:04;;;;;;;43.53;16.65;;;4.30;63.90;;;;;;6300572;28;20120;-72
2022/01/27 07:37:05;;;;;;;42.15;13.15;;;4.30;64.00;;;;;;6300928;28;20077;-71
2022/01/27 07:40:07;;;;;;;52.47;16.92;;;4.30;64.10;;;;;;6284159;28;20028;-71
2022/01/27 07:43:10;;;;;;;48.97;14.98;;;4.30;64.10;;;;;;6300795;28;20032;-70
2022/01/27 07:46:13;;;;;;;31.48;12.63;;;4.30;64.20;;;;;;6317370;28;20031;-70
2022/01/27 07:49:14;;;;;;;51.92;16.52;;;4.30;64.40;;;;;;6300181;28;20032;-70
2022/01/27 07:52:14;;;;;;;33.42;13.43;;;4.40;64.40;;;;;;6300335;28;20511;-70
2022/01/27 07:55:15;;;;;;;43.90;14.73;;;4.50;64.10;;;;;;6317221;28;20074;-71
2022/01/27 07:58:16;;;;;;;25.25;10.43;;;4.50;63.80;;;;;;6299979;28;20578;-70
2022/01/27 08:01:17;;;;;;;38.13;13.65;;;4.50;63.70;;;;;;6300365;28;20433;-71
2022/01/27 08:04:19;;;;;;;43.03;15.07;;;4.50;63.50;;;;;;6283810;28;20032;-71
2022/01/27 08:07:20;;;;;;;45.00;16.13;;;4.50;63.50;;;;;;6297387;28;20413;-71
2022/01/27 08:10:22;;;;;;;38.80;13.38;;;4.50;63.50;;;;;;6282933;28;20419;-70
2022/01/27 08:13:23;;;;;;;40.88;14.75;;;4.60;63.50;;;;;;6283331;28;20096;-70
2022/01/27 08:16:24;;;;;;;45.05;15.18;;;4.60;63.40;;;;;;6300124;28;20038;-72
2022/01/27 08:19:26;;;;;;;46.67;15.75;;;4.60;63.10;;;;;;6299988;28;20522;-70
2022/01/27 08:22:27;;;;;;;46.00;17.38;;;4.60;63.00;;;;;;6299726;28;20031;-71
2022/01/27 08:25:28;;;;;;;50.78;16.33;;;4.60;62.90;;;;;;6299919;28;20087;-71
2022/01/27 08:28:35;;;;;;;58.28;17.42;;;4.60;63.00;;;;;;6317195;28;20047;-71
2022/01/27 08:32:16;;;;;;;52.65;15.35;;;4.60;63.10;;;;;;6314326;28;20028;-70
2022/01/27 08:35:05;;;;;;;50.83;18.07;;;4.60;63.50;;;;;;6294773;28;20028;-72
2022/01/27 08:38:06;;;;;;;59.35;18.02;;;4.70;63.10;;;;;;6297072;28;20156;-71
2022/01/27 08:41:09;;;;;;;53.95;15.32;;;4.70;63.00;;;;;;6317209;28;20073;-71
2022/01/27 08:44:10;;;;;;;41.47;17.23;;;4.70;62.90;;;;;;6317080;28;20440;-71
2022/01/27 08:47:12;;;;;;;38.10;15.73;;;4.80;63.00;;;;;;6299173;28;20195;-71
2022/01/27 08:50:14;;;;;;;47.38;16.50;;;4.80;62.90;;;;;;6316175;28;20441;-72
2022/01/27 08:53:15;;;;;;;49.35;13.85;;;4.80;62.90;;;;;;6298747;28;20027;-70
2022/01/27 08:56:17;;;;;;;54.72;16.02;;;4.90;62.80;;;;;;6317143;28;20028;-71
2022/01/27 08:59:18;;;;;;;44.13;15.93;;;4.90;62.70;;;;;;6316774;28;20673;-72
2022/01/27 09:02:19;;;;;;;61.30;17.83;;;4.90;62.50;;;;;;6320385;28;20024;-71
2022/01/27 09:05:20;;;;;;;54.50;17.15;;;4.90;62.60;;;;;;6305994;28;20092;-71
2022/01/27 09:08:21;;;;;;;45.35;15.05;;;5.00;62.50;;;;;;6321800;28;20036;-73
2022/01/27 09:11:23;;;;;;;51.00;15.43;;;5.00;62.30;;;;;;6317471;28;20137;-71
2022/01/27 09:14:30;;;;;;;54.42;16.25;;;5.00;62.30;;;;;;6315198;28;20028;-70
2022/01/27 09:17:39;;;;;;;58.83;16.05;;;5.00;62.20;;;;;;6316450;28;20032;-71
2022/01/27 09:20:41;;;;;;;51.95;17.38;;;5.10;62.00;;;;;;6314757;28;20035;-71
2022/01/27 09:23:42;;;;;;;53.38;17.00;;;5.10;61.80;;;;;;6315509;28;20468;-71
2022/01/27 09:29:50;;;;;;;49.83;16.13;;;5.10;61.70;;;;;;6315577;28;20101;-71
2022/01/27 09:32:51;;;;;;;42.28;14.88;;;5.10;61.50;;;;;;6315276;28;20066;-72
2022/01/27 09:35:52;;;;;;;42.80;16.08;;;5.10;61.60;;;;;;6298262;28;20139;-71
2022/01/27 09:38:53;;;;;;;45.30;15.18;;;5.10;61.60;;;;;;6293729;28;20061;-71
2022/01/27 09:41:57;;;;;;;53.13;16.25;;;5.20;61.60;;;;;;6302175;28;20039;-71
2022/01/27 09:45:02;;;;;;;60.55;17.08;;;5.20;61.40;;;;;;6319097;28;20069;-71
2022/01/27 09:48:12;;;;;;;47.80;16.52;;;5.30;61.30;;;;;;6303073;28;20038;-72
2022/01/27 09:54:22;;;;;;;;;;;5.30;61.00;;;;;;6302709;28;20032;-70
2022/01/27 09:57:23;;;;;;;49.85;15.85;;;5.30;60.80;;;;;;6302212;28;19908;-71
2022/01/27 10:00:24;;;;;;;54.83;15.30;;;5.40;60.70;;;;;;6285420;28;20055;-72
2022/01/27 10:03:28;;;;;;;51.30;17.33;;;5.40;60.50;;;;;;6319504;28;20357;-71
2022/01/27 10:06:32;;;;;;;51.67;18.90;;;5.40;60.20;;;;;;6320164;28;20024;-72
2022/01/27 10:09:34;;;;;;;53.10;18.38;;;5.40;60.20;;;;;;6319959;28;20119;-71
2022/01/27 10:12:47;;;;;;;41.78;13.63;;;5.40;60.20;;;;;;6319099;28;20028;-71
2022/01/27 10:15:49;;;;;;;54.13;17.55;;;5.50;60.10;;;;;;6315361;28;20031;-72
2022/01/27 10:19:02;;;;;;;58.80;17.58;;;5.50;60.00;;;;;;6301565;28;20039;-70
2022/01/27 10:22:06;;;;;;;53.17;16.20;;;5.40;60.00;;;;;;6280056;28;20032;-70
2022/01/27 10:25:12;;;;;;;72.30;23.90;;;5.50;60.20;;;;;;6301396;28;20473;-71
2022/01/27 10:31:42;;;;;;;42.22;14.98;;;5.60;60.10;;;;;;6318852;28;20038;-72
2022/01/27 10:34:55;;;;;;;55.20;18.98;;;5.80;59.90;;;;;;6320059;28;20024;-71
2022/01/27 10:38:08;;;;;;;46.13;16.90;;;5.90;59.80;;;;;;6282739;28;20028;-72
2022/01/27 10:41:10;;;;;;;54.60;16.48;;;5.90;59.60;;;;;;6302104;28;20323;-73
2022/01/27 10:44:12;;;;;;;49.20;17.17;;;6.00;59.50;;;;;;6301492;28;20032;-71
2022/01/27 10:47:26;;;;;;;58.33;17.10;;;6.10;59.30;;;;;;6301005;28;20461;-72
2022/01/27 10:50:29;;;;;;;56.60;18.50;;;6.10;59.10;;;;;;6300823;28;20032;-71
2022/01/27 10:54:34;;;;;;;43.50;15.10;;;6.00;58.80;;;;;;6316589;28;20054;-72
2022/01/27 10:57:24;;;;;;;56.45;17.58;;;6.00;58.80;;;;;;6297410;28;20028;-71
2022/01/27 11:00:26;;;;;;;56.33;17.52;;;5.90;58.80;;;;;;6299906;28;20500;-71
2022/01/27 11:03:28;;;;;;;50.67;16.00;;;5.90;59.10;;;;;;6300852;28;20091;-71
2022/01/27 11:06:31;;;;;;;53.97;17.50;;;6.00;59.10;;;;;;6300358;28;20049;-71
2022/01/27 11:09:34;;;;;;;54.20;16.75;;;6.00;59.10;;;;;;6283829;28;20053;-72
2022/01/27 11:12:36;;;;;;;64.70;17.58;;;6.20;58.90;;;;;;6318741;28;20028;-70
2022/01/27 11:15:41;;;;;;;51.50;16.75;;;6.30;58.80;;;;;;6301175;28;20035;-71
2022/01/27 11:18:45;;;;;;;59.67;19.58;;;6.40;58.50;;;;;;6284729;28;20044;-72
2022/01/27 11:21:58;;;;;;;42.92;15.45;;;6.40;58.30;;;;;;6318307;28;20051;-71
2022/01/27 11:28:05;;;;;;;45.72;16.15;;;6.50;57.90;;;;;;6318830;28;20032;-71
2022/01/27 11:31:33;;;;;;;52.58;16.60;;;6.50;57.90;;;;;;6318603;28;20383;-71
2022/01/27 11:34:47;;;;;;;49.92;15.00;;;6.40;57.70;;;;;;6317357;28;20032;-71
2022/01/27 11:37:57;;;;;;;52.22;18.73;;;6.40;57.80;;;;;;6296660;28;20025;-71
2022/01/27 11:40:58;;;;;;;75.45;19.33;;;6.40;57.90;;;;;;6315728;28;20031;-72
2022/01/27 11:44:25;;;;;;;53.83;17.17;;;6.50;57.90;;;;;;6300349;28;20500;-71
2022/01/27 11:47:32;;;;;;;76.22;20.77;;;6.40;57.80;;;;;;6318388;28;20016;-71
2022/01/27 11:50:54;;;;;;;66.20;18.80;;;6.40;58.00;;;;;;6318004;28;20032;-71
2022/01/27 11:53:56;;;;;;;74.43;18.58;;;6.60;58.00;;;;;;6312573;28;20492;-71
2022/01/27 11:56:57;;;;;;;58.25;18.85;;;6.60;57.70;;;;;;6299816;28;20278;-72
2022/01/27 12:00:07;;;;;;;76.15;27.33;;;6.70;58.60;;;;;;6317627;28;20096;-73
2022/01/27 12:03:14;;;;;;;71.57;19.02;;;7.20;57.60;;;;;;6299963;28;20456;-72
2022/01/27 12:06:19;;;;;;;59.67;18.58;;;7.70;56.70;;;;;;6299036;28;20445;-71
2022/01/27 12:09:20;;;;;;;57.17;18.38;;;8.30;55.30;;;;;;6312643;28;20574;-71
2022/01/27 12:12:31;;;;;;;54.90;18.58;;;8.40;54.40;;;;;;6280777;28;20033;-71
2022/01/27 12:15:32;;;;;;;60.17;17.98;;;8.30;54.20;;;;;;6298834;28;20097;-71
2022/01/27 12:18:35;;;;;;;68.32;20.00;;;8.10;54.50;;;;;;6283241;28;20036;-71
2022/01/27 12:21:55;;;;;;;54.95;18.00;;;8.10;54.70;;;;;;6299908;28;20285;-72
2022/01/27 12:24:58;;;;;;;52.00;16.70;;;7.90;54.90;;;;;;6295016;28;20116;-71
2022/01/27 12:27:59;;;;;;;64.95;20.25;;;7.90;55.20;;;;;;6310844;28;20639;-73
2022/01/27 12:31:00;;;;;;;51.58;18.15;;;7.80;55.20;;;;;;6295826;28;20086;-72
2022/01/27 12:34:01;;;;;;;62.80;18.90;;;7.70;55.20;;;;;;6299334;28;20036;-71
2022/01/27 12:37:10;;;;;;;57.08;18.73;;;7.60;55.20;;;;;;6295781;28;20523;-72
2022/01/27 12:40:30;;;;;;;66.50;18.65;;;7.50;55.50;;;;;;6281826;28;20156;-72
2022/01/27 12:43:31;;;;;;;56.70;17.27;;;7.40;55.60;;;;;;6292332;28;20020;-71
2022/01/27 12:46:32;;;;;;;53.35;18.02;;;7.30;55.70;;;;;;6298839;28;20035;-72
2022/01/27 12:49:45;;;;;;;67.68;18.13;;;7.30;56.00;;;;;;6281310;28;20117;-71
2022/01/27 12:52:50;;;;;;;63.50;18.17;;;7.30;56.10;;;;;;6297772;28;20519;-71
2022/01/27 12:55:51;;;;;;;67.32;18.42;;;7.30;56.20;;;;;;6298110;28;20032;-71
2022/01/27 12:58:52;;;;;;;66.13;20.67;;;7.30;56.30;;;;;;6281909;28;20101;-70
2022/01/27 13:02:05;;;;;;;61.75;18.02;;;7.40;56.30;;;;;;6316348;28;20020;-71
2022/01/27 13:05:08;;;;;;;62.63;19.55;;;7.40;56.40;;;;;;6316293;28;20020;-72
2022/01/27 13:08:11;;;;;;;62.08;22.48;;;7.40;56.20;;;;;;6296830;28;20598;-73
2022/01/27 13:11:13;;;;;;;61.03;18.85;;;7.50;56.20;;;;;;6281801;28;20028;-72
2022/01/27 13:14:14;;;;;;;60.40;19.13;;;7.50;56.20;;;;;;6281619;28;20345;-70
2022/01/27 13:17:27;;;;;;;67.40;20.90;;;7.50;56.10;;;;;;6302880;28;20060;-72
2022/01/27 13:20:38;;;;;;;63.85;20.13;;;7.50;56.10;;;;;;6281209;28;20088;-71
2022/01/27 13:23:45;;;;;;;58.47;17.20;;;7.40;56.20;;;;;;6302104;28;20504;-71
2022/01/27 13:26:47;;;;;;;62.13;19.90;;;7.40;56.20;;;;;;6321099;28;20032;-71
2022/01/27 13:29:49;;;;;;;61.90;18.58;;;7.40;56.20;;;;;;6302970;28;20774;-72
2022/01/27 13:32:51;;;;;;;46.63;17.33;;;7.40;56.30;;;;;;6321067;28;20396;-72
2022/01/27 13:35:54;;;;;;;63.15;18.85;;;7.50;56.10;;;;;;6319243;28;20621;-71
2022/01/27 13:42:09;;;;;;;70.50;21.60;;;7.40;56.10;;;;;;6320532;28;20028;-71
2022/01/27 13:45:10;;;;;;;70.22;19.90;;;7.40;56.20;;;;;;6320682;28;20118;-71
2022/01/27 13:48:22;;;;;;;64.63;19.25;;;7.40;56.30;;;;;;6302525;28;20149;-70
2022/01/27 13:51:23;;;;;;;57.22;19.23;;;7.50;56.20;;;;;;6319587;28;20026;-70
2022/01/27 13:54:31;;;;;;;52.53;17.67;;;7.50;56.20;;;;;;6320055;28;20065;-72
2022/01/27 13:57:48;;;;;;;59.08;19.40;;;7.50;56.10;;;;;;6320326;28;20693;-72
2022/01/27 14:00:52;;;;;;;60.65;19.75;;;7.40;55.80;;;;;;6302064;28;20028;-71
2022/01/27 14:03:52;;;;;;;58.90;18.38;;;7.40;56.10;;;;;;6286086;28;20032;-71
2022/01/27 14:06:56;;;;;;;69.63;17.65;;;7.40;56.10;;;;;;6315077;28;20073;-70
2022/01/27 14:10:11;;;;;;;66.90;18.15;;;7.40;56.20;;;;;;6300363;28;20036;-70
2022/01/27 14:13:23;;;;;;;66.65;19.70;;;7.40;56.20;;;;;;6320146;28;20037;-71
2022/01/27 14:16:28;;;;;;;68.32;18.13;;;7.40;56.20;;;;;;6315944;28;20586;-71
2022/01/27 14:19:33;;;;;;;51.60;18.05;;;7.50;56.20;;;;;;6320356;28;20038;-70
2022/01/27 14:22:40;;;;;;;55.38;16.73;;;7.40;56.20;;;;;;6295596;28;20028;-71
2022/01/27 14:25:48;;;;;;;56.08;18.77;;;7.50;56.20;;;;;;6319423;28;20044;-71
2022/01/27 14:28:49;;;;;;;;;;;7.50;56.20;;;;;;6284736;28;20361;-71
2022/01/27 14:31:50;;;;;;;52.08;16.02;;;7.50;56.10;;;;;;6319646;28;19908;-71
2022/01/27 14:34:51;;;;;;;49.42;17.60;;;7.60;56.10;;;;;;6318265;28;20126;-71
2022/01/27 14:37:57;;;;;;;61.42;19.17;;;7.50;56.70;;;;;;6312206;28;20040;-71
2022/01/27 14:40:58;;;;;;;66.45;18.55;;;7.50;56.20;;;;;;6301469;28;20119;-71
2022/01/27 14:44:00;;;;;;;61.55;18.98;;;7.60;56.20;;;;;;6301392;28;20111;-70
2022/01/27 14:47:04;;;;;;;65.60;18.25;;;7.50;56.10;;;;;;6301081;28;20092;-71
2022/01/27 14:50:06;;;;;;;57.67;18.45;;;7.50;56.10;;;;;;6317859;28;20043;-71
2022/01/27 14:53:08;;;;;;;55.67;18.90;;;7.50;56.20;;;;;;6300691;28;20024;-73
2022/01/27 14:56:09;;;;;;;58.28;17.60;;;7.50;56.20;;;;;;6301139;28;20043;-70
2022/01/27 14:59:10;;;;;;;54.10;17.35;;;7.50;56.20;;;;;;6300699;28;20556;-70
2022/01/27 15:02:11;;;;;;;49.58;15.52;;;7.50;56.30;;;;;;6300883;28;20031;-72
2022/01/27 15:05:12;;;;;;;47.13;16.20;;;7.40;56.20;;;;;;6318550;28;20605;-71
2022/01/27 15:08:13;;;;;;;46.90;15.77;;;7.50;56.10;;;;;;6298295;28;20039;-71
2022/01/27 15:11:14;;;;;;;70.90;21.75;;;7.50;56.20;;;;;;6300854;28;20527;-72
2022/01/27 15:21:00;;;;;;;46.15;15.95;;;7.50;56.20;;;;;;6300893;28;20035;-70
2022/01/27 15:24:00;;;;;;;58.97;16.98;;;7.50;56.20;;;;;;6312101;28;20119;-71
2022/01/27 15:27:01;;;;;;;57.00;17.40;;;7.40;56.20;;;;;;6300283;28;20394;-71
2022/01/27 15:30:07;;;;;;;58.40;17.92;;;7.40;56.30;;;;;;6300496;28;20065;-71
2022/01/27 15:33:10;;;;;;;53.05;17.75;;;7.40;56.40;;;;;;6283455;28;20016;-72
2022/01/27 15:36:13;;;;;;;65.15;19.83;;;7.40;56.40;;;;;;6318131;28;20024;-70
2022/01/27 15:39:15;;;;;;;57.50;17.40;;;7.40;56.50;;;;;;6314879;28;20039;-72
2022/01/27 15:42:16;;;;;;;57.08;18.35;;;7.30;56.40;;;;;;6317818;28;20450;-71
2022/01/27 15:45:22;;;;;;;55.88;18.52;;;7.20;56.50;;;;;;6317374;28;20056;-72
2022/01/27 15:48:23;;;;;;;72.47;17.40;;;7.20;56.60;;;;;;6317719;28;20044;-71
2022/01/27 15:51:24;;;;;;;52.63;18.63;;;7.20;56.70;;;;;;6316437;28;20027;-70
2022/01/27 15:54:25;;;;;;;54.33;17.23;;;7.20;56.70;;;;;;6299471;28;20089;-72
2022/01/27 15:57:27;;;;;;;58.67;17.00;;;7.10;56.80;;;;;;6299691;28;20032;-70
2022/01/27 16:00:29;;;;;;;45.30;15.38;;;7.10;56.90;;;;;;6317540;28;20344;-72
2022/01/27 16:03:30;;;;;;;62.42;19.27;;;7.00;56.90;;;;;;6316739;28;20035;-71
2022/01/27 16:06:33;;;;;;;60.70;18.85;;;7.00;57.00;;;;;;6276665;28;20035;-70
2022/01/27 16:09:34;;;;;;;50.33;17.48;;;7.00;57.10;;;;;;6288251;28;20108;-71
2022/01/27 16:12:38;;;;;;;47.97;17.58;;;6.90;57.10;;;;;;6317118;28;20663;-71
2022/01/27 16:15:42;;;;;;;67.90;18.30;;;6.90;57.20;;;;;;6317254;28;20032;-70
2022/01/27 16:18:43;;;;;;;55.85;17.40;;;6.90;57.40;;;;;;6317158;28;20028;-72
2022/01/27 16:21:45;;;;;;;52.80;17.95;;;6.80;57.40;;;;;;6282812;28;20035;-72
2022/01/27 16:24:46;;;;;;;60.40;20.38;;;6.80;57.60;;;;;;6298587;28;20040;-70
2022/01/27 16:27:47;;;;;;;52.05;17.58;;;6.80;57.70;;;;;;6299347;28;20048;-71
2022/01/27 16:30:48;;;;;;;51.65;16.88;;;6.80;57.60;;;;;;6299114;28;20024;-71
2022/01/27 16:33:49;;;;;;;60.80;17.13;;;6.70;57.70;;;;;;6278812;28;20024;-71
2022/01/27 16:36:50;;;;;;;68.25;19.38;;;6.70;57.80;;;;;;6316942;28;20036;-70
2022/01/27 16:39:51;;;;;;;45.40;17.35;;;6.60;57.90;;;;;;6316470;28;20107;-72
2022/01/27 16:42:52;;;;;;;52.63;17.75;;;6.60;58.00;;;;;;6316842;28;20030;-72